Time;durP1;ratioP1;P1;durP2;ratioP2;P2;SDS_P1;SDS_P2;PMS_P1;PMS_P2;Temp;Humidity;BMP_temperature;BMP_pressure;BME280_temperature;BME280_humidity;BME280_pressure;Samples;Min_cycle;Max_cycle;Signal;HPM_P1;HPM_P2
2022/11/12 00:00:33;;;;;;;1.90;1.17;;;9.40;46.50;;;;;;5007754;28;20240;-75
2022/11/12 00:02:59;;;;;;;3.27;2.53;;;9.40;45.80;;;;;;5007709;28;20696;-75
2022/11/12 00:05:25;;;;;;;3.00;1.93;;;9.10;47.70;;;;;;5007823;28;20177;-74
2022/11/12 00:07:50;;;;;;;2.35;1.45;;;9.20;46.40;;;;;;5011206;28;20443;-74
2022/11/12 00:10:16;;;;;;;2.00;1.30;;;9.40;46.00;;;;;;5011851;28;20549;-75
2022/11/12 00:12:42;;;;;;;5.13;2.17;;;9.30;46.40;;;;;;5008286;28;20192;-75
2022/11/12 00:15:08;;;;;;;1.90;1.10;;;9.40;45.80;;;;;;5007598;28;20900;-75
2022/11/12 00:17:34;;;;;;;2.78;1.40;;;9.40;45.50;;;;;;5009499;28;20495;-75
2022/11/12 00:20:00;;;;;;;2.77;1.60;;;9.50;44.80;;;;;;5007491;28;20232;-75
2022/11/12 00:22:26;;;;;;;1.90;1.10;;;9.60;44.40;;;;;;5010525;28;20219;-74
2022/11/12 00:24:51;;;;;;;1.80;1.10;;;9.40;44.30;;;;;;5010293;28;20264;-74
2022/11/12 00:27:17;;;;;;;3.93;1.87;;;9.20;45.20;;;;;;5007776;28;20456;-75
2022/11/12 00:29:42;;;;;;;2.07;1.30;;;9.30;44.80;;;;;;5008497;28;20181;-74
2022/11/12 00:32:08;;;;;;;4.33;3.30;;;9.70;44.70;;;;;;5008206;28;20273;-75
2022/11/12 00:34:35;;;;;;;4.82;2.50;;;9.40;44.40;;;;;;5008714;28;20185;-74
2022/11/12 00:37:01;;;;;;;4.72;2.05;;;9.30;45.00;;;;;;5011337;28;20487;-74
2022/11/12 00:39:27;;;;;;;2.00;1.20;;;9.30;44.70;;;;;;5009943;28;20193;-74
2022/11/12 00:41:53;;;;;;;4.30;2.95;;;9.20;44.80;;;;;;5010467;28;20220;-74
2022/11/12 00:44:19;;;;;;;3.87;2.30;;;9.30;45.00;;;;;;5033156;28;20240;-75
2022/11/12 00:46:45;;;;;;;1.90;1.13;;;9.30;45.30;;;;;;5005648;28;20443;-75
2022/11/12 00:49:11;;;;;;;2.20;1.47;;;9.30;44.60;;;;;;5008676;28;20786;-74
2022/11/12 00:51:37;;;;;;;2.88;1.40;;;9.20;46.20;;;;;;5024454;28;20648;-74
2022/11/12 00:54:03;;;;;;;5.70;2.00;;;9.30;45.40;;;;;;5008865;28;20193;-74
2022/11/12 00:56:28;;;;;;;2.35;1.65;;;9.50;46.00;;;;;;5009488;28;20451;-74
2022/11/12 00:58:54;;;;;;;2.00;1.37;;;9.30;45.30;;;;;;5008882;28;20680;-74
2022/11/12 01:01:20;;;;;;;2.10;1.40;;;9.10;45.50;;;;;;5009715;28;20193;-74
2022/11/12 01:03:45;;;;;;;1.80;1.10;;;9.10;44.80;;;;;;5010298;28;20204;-74
2022/11/12 01:06:19;;;;;;;3.00;1.50;;;9.00;45.20;;;;;;5020669;28;20444;-75
2022/11/12 01:08:47;;;;;;;2.00;1.20;;;9.00;45.10;;;;;;5009679;28;20691;-74
2022/11/12 01:11:21;;;;;;;2.28;1.40;;;9.00;45.40;;;;;;5009516;28;20189;-75
2022/11/12 01:14:03;;;;;;;2.10;1.42;;;9.10;44.90;;;;;;5006884;28;20513;-74
2022/11/12 01:16:33;;;;;;;2.35;1.63;;;9.20;44.70;;;;;;5003011;28;20184;-75
2022/11/12 01:19:01;;;;;;;2.50;1.80;;;9.30;44.70;;;;;;5011259;28;20608;-75
2022/11/12 01:21:29;;;;;;;2.00;1.30;;;9.00;44.70;;;;;;5013434;28;20181;-74
2022/11/12 01:23:57;;;;;;;2.00;1.30;;;9.00;45.10;;;;;;5012006;28;20244;-74
2022/11/12 01:26:23;;;;;;;1.85;1.10;;;8.70;45.60;;;;;;5012908;28;20193;-74
2022/11/12 01:28:49;;;;;;;11.85;2.47;;;8.80;45.70;;;;;;5014546;28;20197;-74
2022/11/12 01:31:18;;;;;;;2.00;1.40;;;8.90;45.30;;;;;;5012884;28;20177;-75
2022/11/12 01:33:45;;;;;;;1.85;1.20;;;9.00;44.70;;;;;;5012805;28;20198;-74
2022/11/12 01:36:12;;;;;;;2.10;1.30;;;8.90;45.00;;;;;;5014862;28;20231;-75
2022/11/12 01:38:40;;;;;;;2.53;1.83;;;8.80;44.60;;;;;;5011157;28;20766;-74
2022/11/12 01:41:07;;;;;;;1.90;1.20;;;8.80;44.60;;;;;;5011941;28;20185;-74
2022/11/12 01:43:33;;;;;;;3.33;2.08;;;8.90;44.70;;;;;;5014160;28;20212;-75
2022/11/12 01:46:03;;;;;;;4.10;2.47;;;8.90;44.40;;;;;;5009493;28;20235;-74
2022/11/12 01:48:46;;;;;;;2.35;1.65;;;8.70;44.90;;;;;;5006187;28;20468;-74
2022/11/12 01:51:13;;;;;;;2.05;1.30;;;8.70;45.40;;;;;;5013814;28;20265;-75
2022/11/12 01:53:45;;;;;;;2.00;1.30;;;8.70;44.60;;;;;;5014147;28;20260;-74
2022/11/12 01:56:11;;;;;;;2.00;1.20;;;8.80;44.70;;;;;;5018245;28;20684;-75
2022/11/12 01:58:38;;;;;;;3.90;2.67;;;8.80;44.50;;;;;;5011373;28;20205;-74
2022/11/12 02:01:04;;;;;;;2.30;1.70;;;8.70;45.10;;;;;;5012034;28;20189;-74
2022/11/12 02:03:30;;;;;;;2.40;1.40;;;8.60;44.70;;;;;;5013726;28;20204;-74
2022/11/12 02:06:03;;;;;;;3.00;1.60;;;9.00;44.90;;;;;;5012335;28;20177;-75
2022/11/12 02:08:30;;;;;;;1.95;1.25;;;8.60;45.00;;;;;;5009148;28;20220;-75
2022/11/12 02:10:56;;;;;;;5.50;2.88;;;8.60;44.70;;;;;;5013842;28;20195;-75
2022/11/12 02:16:07;;;;;;;1.80;1.10;;;8.50;44.50;;;;;;5012141;28;20251;-74
2022/11/12 02:18:33;;;;;;;2.35;1.60;;;9.00;44.80;;;;;;5026909;28;20237;-75
2022/11/12 02:21:03;;;;;;;2.10;1.43;;;8.60;44.50;;;;;;5013557;28;20212;-74
2022/11/12 02:23:31;;;;;;;1.95;1.30;;;8.60;44.40;;;;;;5011836;28;20209;-74
2022/11/12 02:25:58;;;;;;;1.80;1.10;;;8.60;44.70;;;;;;5013573;28;20177;-74
2022/11/12 02:28:24;;;;;;;2.55;1.88;;;8.60;45.10;;;;;;5016286;28;20224;-74
2022/11/12 02:30:50;;;;;;;1.90;1.20;;;8.50;45.40;;;;;;5013130;28;20182;-74
2022/11/12 02:33:15;;;;;;;1.90;1.20;;;7.80;48.90;;;;;;5012722;28;20746;-74
2022/11/12 02:35:41;;;;;;;1.80;1.10;;;7.90;49.40;;;;;;5011456;28;20185;-74
2022/11/12 02:38:08;;;;;;;2.00;1.33;;;8.10;47.90;;;;;;5011079;28;20286;-74
2022/11/12 02:40:34;;;;;;;3.45;2.10;;;8.30;47.00;;;;;;5011879;28;20196;-74
2022/11/12 02:42:59;;;;;;;1.90;1.20;;;8.20;47.50;;;;;;5020635;28;20570;-74
2022/11/12 02:45:26;;;;;;;1.93;1.30;;;8.50;45.80;;;;;;5033176;28;20181;-74
2022/11/12 02:47:52;;;;;;;2.50;1.50;;;8.70;45.20;;;;;;5016032;28;20209;-74
2022/11/12 02:50:18;;;;;;;1.90;1.20;;;8.80;45.20;;;;;;5020491;28;20653;-74
2022/11/12 02:52:43;;;;;;;2.00;1.20;;;8.40;44.80;;;;;;5011152;28;20272;-74
2022/11/12 02:55:11;;;;;;;1.80;1.10;;;8.40;44.70;;;;;;5011706;28;20947;-74
2022/11/12 02:57:37;;;;;;;2.10;1.30;;;8.30;45.00;;;;;;5008491;28;20193;-74
2022/11/12 03:00:11;;;;;;;3.35;1.65;;;8.70;45.60;;;;;;5016832;28;20669;-74
2022/11/12 03:02:41;;;;;;;1.90;1.20;;;8.40;44.50;;;;;;5004406;28;20213;-74
2022/11/12 03:05:12;;;;;;;1.80;1.10;;;8.60;44.30;;;;;;5013392;28;20173;-74
2022/11/12 03:07:38;;;;;;;2.55;1.80;;;8.30;44.90;;;;;;5012713;28;20193;-74
2022/11/12 03:10:04;;;;;;;1.98;1.20;;;8.30;44.50;;;;;;5012498;28;20215;-74
2022/11/12 03:12:31;;;;;;;1.80;1.10;;;8.30;44.10;;;;;;5013251;28;20189;-74
2022/11/12 03:14:57;;;;;;;2.00;1.30;;;8.30;44.80;;;;;;5012162;28;20224;-74
2022/11/12 03:17:22;;;;;;;3.20;1.97;;;8.30;44.60;;;;;;5012474;28;20221;-74
2022/11/12 03:19:48;;;;;;;2.10;1.40;;;8.30;44.10;;;;;;5010211;28;20189;-74
2022/11/12 03:22:14;;;;;;;1.90;1.20;;;8.70;44.80;;;;;;5028788;28;20232;-74
2022/11/12 03:24:39;;;;;;;1.80;1.10;;;8.10;44.40;;;;;;5032076;28;20583;-74
2022/11/12 03:27:05;;;;;;;1.90;1.10;;;8.30;44.40;;;;;;5032277;28;20175;-74
2022/11/12 03:29:30;;;;;;;2.20;1.40;;;8.40;44.30;;;;;;5017795;28;20235;-74
2022/11/12 03:31:56;;;;;;;4.73;1.73;;;8.60;44.60;;;;;;5011152;28;20181;-74
2022/11/12 03:34:21;;;;;;;1.90;1.20;;;8.40;44.40;;;;;;5020533;28;20604;-74
2022/11/12 03:36:47;;;;;;;2.40;1.40;;;8.10;44.20;;;;;;5012417;28;20181;-74
2022/11/12 03:39:13;;;;;;;3.57;1.97;;;8.00;44.40;;;;;;5010679;28;20220;-74
2022/11/12 03:41:38;;;;;;;2.00;1.30;;;8.10;44.60;;;;;;5011212;28;20255;-74
2022/11/12 03:44:04;;;;;;;1.87;1.17;;;8.10;44.40;;;;;;5018782;28;20200;-74
2022/11/12 03:46:29;;;;;;;2.13;1.33;;;8.30;43.40;;;;;;5060885;22;20204;-73
2022/11/12 03:48:55;;;;;;;2.27;1.30;;;8.30;43.00;;;;;;4981465;28;20181;-72
2022/11/12 03:51:21;;;;;;;2.57;1.63;;;8.10;44.10;;;;;;4991943;28;20202;-69
2022/11/12 03:53:47;;;;;;;2.97;1.90;;;8.00;44.20;;;;;;4991971;28;20181;-70
2022/11/12 03:56:12;;;;;;;4.93;2.37;;;8.00;45.10;;;;;;5001896;28;20190;-70
2022/11/12 03:58:38;;;;;;;2.17;1.40;;;7.90;45.10;;;;;;4992407;28;20256;-71
2022/11/12 04:01:04;;;;;;;2.47;1.67;;;8.00;45.20;;;;;;4991619;28;20190;-73
2022/11/12 04:03:29;;;;;;;1.87;1.10;;;8.00;44.80;;;;;;4995122;28;20303;-69
2022/11/12 04:08:39;;;;;;;2.53;1.60;;;8.00;44.30;;;;;;4972542;28;20579;-70
2022/11/12 04:11:13;;;;;;;1.87;1.10;;;8.10;45.20;;;;;;4987063;28;20186;-70
2022/11/12 04:13:40;;;;;;;3.47;2.17;;;8.20;44.50;;;;;;4990457;28;20524;-70
2022/11/12 04:21:55;;;;;;;2.30;1.58;;;8.20;45.10;;;;;;4991636;28;20189;-70
2022/11/12 04:27:15;;;;;;;2.65;1.70;;;8.30;45.10;;;;;;4992201;28;20332;-69
2022/11/12 04:32:26;;;;;;;3.25;1.65;;;8.50;45.90;;;;;;4991433;28;20181;-69
2022/11/12 04:34:52;;;;;;;1.80;1.10;;;8.30;45.80;;;;;;4991142;28;20173;-70
2022/11/12 04:37:18;;;;;;;2.30;1.30;;;8.40;45.90;;;;;;4991931;28;20209;-70
2022/11/12 04:39:44;;;;;;;1.98;1.23;;;8.50;44.90;;;;;;4991014;28;20209;-69
2022/11/12 04:45:01;;;;;;;2.75;1.52;;;8.50;45.10;;;;;;4992119;28;20189;-70
2022/11/12 04:47:45;;;;;;;2.00;1.23;;;8.50;45.10;;;;;;4990595;28;20252;-70
2022/11/12 04:50:16;;;;;;;1.90;1.17;;;8.40;45.20;;;;;;4990551;28;20292;-70
2022/11/12 04:52:41;;;;;;;2.00;1.20;;;8.30;45.50;;;;;;4989428;28;20240;-70
2022/11/12 04:55:07;;;;;;;2.77;1.60;;;8.40;45.60;;;;;;4993214;28;20689;-70
2022/11/12 04:57:33;;;;;;;2.10;1.35;;;8.20;45.70;;;;;;4995654;28;20272;-70
2022/11/12 04:59:59;;;;;;;2.97;1.77;;;8.30;45.60;;;;;;4995688;28;20257;-70
2022/11/12 05:02:24;;;;;;;2.00;1.30;;;8.30;46.00;;;;;;4993107;28;20657;-70
2022/11/12 05:04:50;;;;;;;2.10;1.53;;;8.30;45.90;;;;;;4994844;28;20185;-70
2022/11/12 05:07:16;;;;;;;3.17;2.17;;;8.50;45.90;;;;;;4995533;28;20248;-71
2022/11/12 05:09:42;;;;;;;2.10;1.40;;;8.30;46.00;;;;;;4994663;28;20192;-70
2022/11/12 05:12:08;;;;;;;2.00;1.30;;;8.30;46.00;;;;;;4994110;28;20649;-72
2022/11/12 05:14:33;;;;;;;2.40;1.75;;;8.50;45.80;;;;;;5003065;28;20186;-72
2022/11/12 05:17:00;;;;;;;2.97;1.70;;;8.60;44.80;;;;;;4995036;28;20779;-70
2022/11/12 05:19:26;;;;;;;3.72;1.85;;;8.70;44.30;;;;;;4994681;28;20236;-72
2022/11/12 05:22:06;;;;;;;2.23;1.30;;;8.70;45.20;;;;;;4994620;28;20562;-70
2022/11/12 05:24:37;;;;;;;1.80;1.10;;;8.70;44.90;;;;;;4989437;28;20669;-70
2022/11/12 05:27:05;;;;;;;3.85;1.88;;;8.50;45.80;;;;;;4995249;28;20225;-70
2022/11/12 05:29:30;;;;;;;1.80;1.10;;;8.70;45.20;;;;;;4994909;28;20221;-70
2022/11/12 05:31:56;;;;;;;2.30;1.40;;;9.10;45.50;;;;;;4994955;28;20191;-69
2022/11/12 05:34:22;;;;;;;2.40;1.60;;;8.60;45.10;;;;;;4993375;28;20204;-69
2022/11/12 05:36:47;;;;;;;2.47;1.50;;;8.60;45.30;;;;;;4993464;28;20248;-69
2022/11/12 05:39:13;;;;;;;2.73;1.77;;;8.70;45.00;;;;;;4996798;28;20471;-69
2022/11/12 05:41:38;;;;;;;2.40;1.60;;;9.00;44.90;;;;;;4992963;28;20186;-70
2022/11/12 05:44:04;;;;;;;2.13;1.40;;;8.60;45.20;;;;;;4992524;28;20251;-69
2022/11/12 05:46:30;;;;;;;2.10;1.47;;;8.20;44.70;;;;;;4994338;28;20296;-77
2022/11/12 05:48:55;;;;;;;2.37;1.40;;;8.80;44.80;;;;;;4993708;28;20181;-69
2022/11/12 05:51:21;;;;;;;5.50;2.23;;;8.50;44.10;;;;;;4992521;28;20616;-70
2022/11/12 05:53:46;;;;;;;1.90;1.23;;;8.60;44.30;;;;;;4991869;28;20186;-73
2022/11/12 05:56:12;;;;;;;2.30;1.50;;;8.50;44.10;;;;;;4994246;28;20202;-70
2022/11/12 05:58:38;;;;;;;2.07;1.33;;;8.40;44.80;;;;;;4994661;28;20712;-70
2022/11/12 06:01:04;;;;;;;1.80;1.00;;;8.30;44.80;;;;;;4992880;28;20437;-70
2022/11/12 06:03:30;;;;;;;2.13;1.47;;;8.20;44.90;;;;;;4993166;28;21589;-69
2022/11/12 06:05:56;;;;;;;2.17;1.50;;;8.30;44.40;;;;;;4993632;28;20856;-70
2022/11/12 06:08:21;;;;;;;2.10;1.50;;;8.30;44.70;;;;;;5002049;28;20612;-70
2022/11/12 06:10:51;;;;;;;2.57;1.57;;;8.20;44.90;;;;;;4993777;28;20332;-73
2022/11/12 06:13:17;;;;;;;4.63;1.60;;;8.30;44.40;;;;;;4991869;28;20581;-71
2022/11/12 06:15:43;;;;;;;2.33;1.55;;;8.20;44.70;;;;;;4991980;28;20182;-76
2022/11/12 06:18:09;;;;;;;3.43;2.33;;;8.30;44.60;;;;;;5001390;28;20259;-70
2022/11/12 06:20:35;;;;;;;2.10;1.30;;;8.20;44.10;;;;;;4991323;28;20182;-70
2022/11/12 06:23:00;;;;;;;2.13;1.40;;;8.30;44.40;;;;;;4993649;28;20672;-69
2022/11/12 06:25:26;;;;;;;3.73;2.13;;;8.20;44.40;;;;;;4993250;28;20883;-70
2022/11/12 06:27:52;;;;;;;9.73;1.70;;;8.20;44.20;;;;;;4993014;28;20222;-69
2022/11/12 06:30:18;;;;;;;2.33;1.67;;;8.20;44.50;;;;;;4995281;28;20939;-70
2022/11/12 06:32:47;;;;;;;1.87;1.20;;;8.10;45.30;;;;;;4999526;28;20220;-73
2022/11/12 06:35:14;;;;;;;4.97;2.47;;;8.10;44.90;;;;;;4992533;28;20174;-70
2022/11/12 06:37:40;;;;;;;1.80;1.10;;;8.10;45.00;;;;;;4991112;28;20362;-70
2022/11/12 06:40:06;;;;;;;2.17;1.40;;;8.20;45.00;;;;;;4992826;28;20189;-69
2022/11/12 06:42:32;;;;;;;1.85;1.10;;;8.10;45.00;;;;;;4993494;28;20178;-72
2022/11/12 06:44:58;;;;;;;2.17;1.42;;;8.10;44.80;;;;;;4992166;28;20178;-73
2022/11/12 06:47:23;;;;;;;2.03;1.33;;;8.10;45.00;;;;;;4990357;28;20221;-74
2022/11/12 06:49:49;;;;;;;4.07;2.47;;;8.10;45.00;;;;;;4992175;28;20200;-69
2022/11/12 06:52:15;;;;;;;1.80;1.10;;;8.10;45.60;;;;;;4995801;28;20197;-72
2022/11/12 06:54:40;;;;;;;3.63;1.63;;;8.10;45.30;;;;;;4993036;28;20186;-73
2022/11/12 06:57:06;;;;;;;5.73;1.83;;;8.20;45.20;;;;;;4992572;28;20632;-71
2022/11/12 06:59:32;;;;;;;2.80;1.90;;;8.60;45.40;;;;;;4991871;28;20194;-73
2022/11/12 07:01:57;;;;;;;5.10;3.20;;;8.30;45.20;;;;;;4999148;28;20658;-73
2022/11/12 07:04:23;;;;;;;1.90;1.30;;;8.30;45.40;;;;;;4990713;28;20240;-72
2022/11/12 07:06:49;;;;;;;1.70;1.10;;;8.30;45.60;;;;;;4991727;28;20245;-73
2022/11/12 07:09:15;;;;;;;2.20;1.57;;;8.00;46.50;;;;;;4989743;28;20217;-73
2022/11/12 07:11:40;;;;;;;1.80;1.13;;;8.00;47.10;;;;;;4991221;28;20528;-73
2022/11/12 07:14:06;;;;;;;2.03;1.43;;;8.00;47.00;;;;;;4991671;28;20234;-73
2022/11/12 07:16:33;;;;;;;2.47;1.57;;;8.00;47.10;;;;;;4989939;28;20704;-74
2022/11/12 07:18:59;;;;;;;1.88;1.23;;;8.10;46.50;;;;;;4991296;28;20809;-74
2022/11/12 07:21:25;;;;;;;2.57;1.67;;;8.20;46.50;;;;;;4990158;28;20196;-74
2022/11/12 07:23:51;;;;;;;1.98;1.33;;;8.40;46.20;;;;;;4992331;28;20202;-74
2022/11/12 07:26:19;;;;;;;2.07;1.33;;;8.50;45.40;;;;;;4992367;28;20185;-73
2022/11/12 07:28:45;;;;;;;1.80;1.10;;;8.40;45.60;;;;;;4991228;28;20445;-72
2022/11/12 07:31:12;;;;;;;1.70;1.13;;;8.50;45.70;;;;;;4992014;28;20186;-84
2022/11/12 07:33:38;;;;;;;3.25;1.75;;;8.40;45.40;;;;;;4998757;28;20471;-80
2022/11/12 07:36:09;;;;;;;1.77;1.17;;;8.20;46.20;;;;;;4998507;28;20648;-79
2022/11/12 07:38:37;;;;;;;2.28;1.30;;;8.30;45.90;;;;;;4978342;28;20885;-80
2022/11/12 07:41:06;;;;;;;1.77;1.13;;;8.30;45.90;;;;;;4993366;28;20212;-81
2022/11/12 07:43:33;;;;;;;1.77;1.10;;;8.50;46.80;;;;;;4988715;28;20263;-75
2022/11/12 07:46:20;;;;;;;3.22;2.05;;;8.50;46.70;;;;;;4976969;28;20173;-76
2022/11/12 07:48:46;;;;;;;1.70;1.10;;;8.40;47.10;;;;;;4993205;28;20233;-76
2022/11/12 07:51:20;;;;;;;2.00;1.33;;;8.40;46.80;;;;;;4999916;28;20193;-76
2022/11/12 07:53:46;;;;;;;1.80;1.17;;;8.50;46.80;;;;;;4994789;28;20190;-75
2022/11/12 07:56:16;;;;;;;1.80;1.20;;;8.20;48.00;;;;;;4996740;28;20189;-76
2022/11/12 07:58:42;;;;;;;3.08;1.75;;;8.50;48.30;;;;;;4996624;28;20190;-76
2022/11/12 08:01:19;;;;;;;1.90;1.20;;;8.80;47.80;;;;;;4993027;28;20236;-75
2022/11/12 08:03:45;;;;;;;1.90;1.30;;;8.60;46.40;;;;;;4990682;28;20882;-76
2022/11/12 08:06:10;;;;;;;1.90;1.27;;;8.50;47.10;;;;;;4991983;28;20186;-76
2022/11/12 08:08:36;;;;;;;1.90;1.37;;;8.70;46.80;;;;;;4990280;28;20709;-75
2022/11/12 08:11:01;;;;;;;2.10;1.40;;;8.70;46.50;;;;;;4972408;28;20193;-77
2022/11/12 08:13:27;;;;;;;1.80;1.20;;;8.90;46.10;;;;;;4990482;28;20264;-75
2022/11/12 08:15:56;;;;;;;2.10;1.47;;;9.00;46.30;;;;;;4990861;28;20244;-72
2022/11/12 08:18:22;;;;;;;1.80;1.10;;;9.10;45.80;;;;;;4989468;28;20212;-74
2022/11/12 08:20:47;;;;;;;1.80;1.17;;;9.10;45.80;;;;;;4988961;28;20284;-75
2022/11/12 08:23:13;;;;;;;2.27;1.60;;;9.20;45.90;;;;;;4989493;28;20209;-75
2022/11/12 08:25:38;;;;;;;2.30;1.60;;;9.40;45.60;;;;;;4989763;28;20179;-74
2022/11/12 08:28:04;;;;;;;1.90;1.33;;;9.20;45.70;;;;;;4988846;28;20743;-76
2022/11/12 08:30:29;;;;;;;1.70;1.10;;;9.40;46.00;;;;;;4995733;28;20177;-76
2022/11/12 08:33:01;;;;;;;1.80;1.23;;;9.00;46.90;;;;;;4979655;28;20201;-75
2022/11/12 08:35:27;;;;;;;2.10;1.20;;;9.00;48.30;;;;;;5005446;28;20326;-75
2022/11/12 08:38:01;;;;;;;2.15;1.30;;;9.40;47.70;;;;;;5001216;28;20701;-71
2022/11/12 08:40:31;;;;;;;1.70;1.10;;;8.70;49.00;;;;;;5006810;28;20186;-74
2022/11/12 08:43:02;;;;;;;1.80;1.23;;;9.00;49.50;;;;;;5003858;28;20252;-76
2022/11/12 08:45:30;;;;;;;2.95;1.88;;;9.00;48.70;;;;;;4999169;28;20177;-74
2022/11/12 08:48:04;;;;;;;3.40;1.67;;;9.00;49.70;;;;;;5002138;28;20217;-75
2022/11/12 08:50:30;;;;;;;2.00;1.30;;;9.30;49.00;;;;;;5002519;28;20169;-75
2022/11/12 08:53:04;;;;;;;1.80;1.20;;;9.00;49.40;;;;;;4996860;28;20187;-73
2022/11/12 08:55:32;;;;;;;1.70;1.10;;;9.20;48.90;;;;;;4995102;28;20190;-73
2022/11/12 08:58:00;;;;;;;1.70;1.10;;;9.40;49.90;;;;;;4996120;28;20211;-73
2022/11/12 09:00:27;;;;;;;1.98;1.33;;;9.20;49.90;;;;;;4995901;28;20186;-75
2022/11/12 09:02:53;;;;;;;3.25;2.47;;;9.30;50.10;;;;;;4996516;28;20581;-76
2022/11/12 09:05:19;;;;;;;1.70;1.10;;;9.50;49.20;;;;;;4992931;28;20175;-76
2022/11/12 09:07:45;;;;;;;1.80;1.13;;;9.90;48.80;;;;;;4976692;28;20202;-74
2022/11/12 09:10:10;;;;;;;2.30;1.50;;;9.50;48.40;;;;;;4991270;28;20236;-76
2022/11/12 09:12:37;;;;;;;1.80;1.20;;;9.20;49.70;;;;;;4997699;28;20211;-76
2022/11/12 09:15:03;;;;;;;2.47;1.30;;;9.60;49.20;;;;;;4994822;28;20192;-73
2022/11/12 09:17:29;;;;;;;2.25;1.33;;;9.50;49.10;;;;;;4994519;28;20207;-76
2022/11/12 09:19:55;;;;;;;1.80;1.20;;;9.40;50.20;;;;;;4994221;28;20215;-76
2022/11/12 09:22:21;;;;;;;3.83;1.67;;;9.90;48.70;;;;;;4990591;28;20274;-77
2022/11/12 09:24:46;;;;;;;1.90;1.30;;;10.00;47.30;;;;;;4977056;28;20289;-76
2022/11/12 09:27:12;;;;;;;2.40;1.80;;;10.10;46.60;;;;;;4995509;28;20702;-76
2022/11/12 09:29:37;;;;;;;2.23;1.70;;;9.70;48.60;;;;;;4995527;28;20204;-76
2022/11/12 09:32:03;;;;;;;2.40;1.47;;;9.70;49.30;;;;;;4994682;28;20219;-75
2022/11/12 09:34:28;;;;;;;1.80;1.13;;;9.40;49.70;;;;;;4994231;28;20658;-76
2022/11/12 09:36:54;;;;;;;1.90;1.20;;;9.50;50.00;;;;;;4995207;28;20230;-76
2022/11/12 09:39:20;;;;;;;2.00;1.37;;;9.80;49.40;;;;;;4993504;28;20189;-74
2022/11/12 09:41:45;;;;;;;2.10;1.40;;;9.80;49.40;;;;;;4993324;28;20238;-75
2022/11/12 09:44:23;;;;;;;1.77;1.10;;;10.00;48.50;;;;;;4993051;28;20544;-75
2022/11/12 09:46:58;;;;;;;1.80;1.10;;;9.70;49.30;;;;;;4993938;28;20671;-76
2022/11/12 09:49:30;;;;;;;2.70;1.85;;;9.60;50.40;;;;;;4995934;28;20577;-76
2022/11/12 09:52:09;;;;;;;1.90;1.25;;;9.60;50.70;;;;;;4998572;28;20163;-76
2022/11/12 09:54:35;;;;;;;1.80;1.10;;;9.70;51.20;;;;;;4992951;28;20201;-75
2022/11/12 09:57:01;;;;;;;1.80;1.00;;;10.30;48.90;;;;;;4994148;28;20206;-74
2022/11/12 09:59:37;;;;;;;2.50;1.57;;;10.60;46.70;;;;;;4994666;28;20186;-77
2022/11/12 10:02:18;;;;;;;2.20;1.40;;;10.10;48.70;;;;;;4993912;28;20455;-75
2022/11/12 10:05:09;;;;;;;1.98;1.20;;;10.20;48.80;;;;;;4989651;28;20217;-76
2022/11/12 10:07:54;;;;;;;1.87;1.10;;;10.10;49.80;;;;;;4981111;28;20228;-76
2022/11/12 10:10:31;;;;;;;2.00;1.20;;;10.20;48.80;;;;;;4994275;28;20503;-75
2022/11/12 10:13:20;;;;;;;1.90;1.20;;;10.60;47.80;;;;;;4994648;28;20409;-76
2022/11/12 10:19:11;;;;;;;1.90;1.20;;;10.10;51.60;;;;;;4991637;28;20192;-75
2022/11/12 10:22:07;;;;;;;2.00;1.30;;;10.30;51.00;;;;;;4993471;28;20441;-75
2022/11/12 10:24:35;;;;;;;2.00;1.27;;;10.20;51.60;;;;;;4987347;28;20472;-74
2022/11/12 10:27:12;;;;;;;1.90;1.20;;;11.30;49.90;;;;;;4975576;28;20206;-76
2022/11/12 10:29:48;;;;;;;1.88;1.10;;;11.40;47.10;;;;;;4996555;28;20429;-76
2022/11/12 10:32:15;;;;;;;2.80;1.60;;;11.00;48.40;;;;;;4994549;28;20245;-76
2022/11/12 10:34:40;;;;;;;1.90;1.10;;;11.40;48.10;;;;;;4993958;28;20864;-76
2022/11/12 10:37:13;;;;;;;1.90;1.20;;;11.70;46.60;;;;;;4994538;28;20488;-76
2022/11/12 10:39:46;;;;;;;2.47;1.40;;;11.50;48.50;;;;;;5014442;28;20170;-76
2022/11/12 10:42:22;;;;;;;2.40;1.40;;;12.50;45.40;;;;;;5005961;28;20449;-76
2022/11/12 10:44:48;;;;;;;2.00;1.20;;;12.30;44.30;;;;;;5000522;28;20510;-75
2022/11/12 10:47:40;;;;;;;2.00;1.20;;;11.90;45.20;;;;;;4981398;28;20543;-75
2022/11/12 10:50:28;;;;;;;2.00;1.20;;;11.70;48.50;;;;;;4995830;28;20586;-76
2022/11/12 10:52:56;;;;;;;2.10;1.20;;;11.60;47.60;;;;;;4992185;28;20444;-76
2022/11/12 10:55:34;;;;;;;1.93;1.10;;;11.40;47.70;;;;;;4992430;28;21182;-76
2022/11/12 10:58:12;;;;;;;1.90;1.10;;;12.00;46.00;;;;;;4976102;28;20433;-76
2022/11/12 11:00:56;;;;;;;2.07;1.20;;;11.90;46.70;;;;;;4993079;28;20406;-76
2022/11/12 11:03:25;;;;;;;2.10;1.23;;;11.70;46.80;;;;;;5000332;28;20468;-75
2022/11/12 11:05:55;;;;;;;2.50;1.40;;;12.30;46.60;;;;;;4997205;28;20804;-77
2022/11/12 11:08:45;;;;;;;2.27;1.40;;;12.50;45.10;;;;;;4999059;28;20445;-75
2022/11/12 11:11:22;;;;;;;2.33;1.33;;;12.60;44.10;;;;;;4995758;28;20452;-76
2022/11/12 11:13:50;;;;;;;2.50;1.50;;;12.00;45.30;;;;;;4994402;28;20421;-76
2022/11/12 11:16:18;;;;;;;2.20;1.33;;;11.50;47.90;;;;;;4998989;28;21000;-76
2022/11/12 11:18:52;;;;;;;2.53;1.40;;;11.70;47.40;;;;;;4999157;28;20433;-75
2022/11/12 11:21:42;;;;;;;2.30;1.30;;;12.00;47.10;;;;;;4997701;28;20505;-74
2022/11/12 11:24:45;;;;;;;2.20;1.20;;;12.50;44.80;;;;;;4999727;28;20457;-76
2022/11/12 11:27:27;;;;;;;2.30;1.20;;;12.70;44.40;;;;;;4993060;28;20448;-75
2022/11/12 11:30:06;;;;;;;2.37;1.20;;;13.20;43.80;;;;;;4994565;28;20417;-77
2022/11/12 11:33:03;;;;;;;2.70;1.50;;;13.60;42.10;;;;;;4992294;28;20509;-75
2022/11/12 11:35:40;;;;;;;2.60;1.40;;;13.50;41.20;;;;;;4984605;28;20442;-76
2022/11/12 11:38:25;;;;;;;2.90;1.50;;;14.10;40.50;;;;;;4992687;28;21002;-76
2022/11/12 11:41:18;;;;;;;3.03;1.40;;;13.90;40.30;;;;;;4992277;28;20423;-75
2022/11/12 11:43:57;;;;;;;3.53;1.67;;;13.30;42.00;;;;;;4986106;28;21203;-76
2022/11/12 11:46:51;;;;;;;3.17;1.53;;;13.30;42.30;;;;;;4995801;28;20438;-76
2022/11/12 11:49:42;;;;;;;2.70;1.30;;;13.70;40.80;;;;;;4992625;28;20407;-76
2022/11/12 11:52:22;;;;;;;2.63;1.10;;;13.30;41.90;;;;;;4992602;28;20394;-76
2022/11/12 11:54:51;;;;;;;3.33;1.43;;;13.60;42.20;;;;;;4996526;28;20786;-75
2022/11/12 11:57:27;;;;;;;3.20;1.50;;;13.70;39.90;;;;;;4984667;28;20954;-76
2022/11/12 11:59:52;;;;;;;7.70;2.17;;;13.70;40.20;;;;;;4993004;28;20437;-75
2022/11/12 12:02:37;;;;;;;3.40;1.60;;;13.50;40.70;;;;;;4994753;28;20458;-77
2022/11/12 12:05:21;;;;;;;6.10;1.87;;;14.00;39.80;;;;;;4990649;28;20179;-77
2022/11/12 12:07:59;;;;;;;3.60;1.40;;;13.90;39.40;;;;;;4986247;28;20819;-75
2022/11/12 12:10:37;;;;;;;4.67;1.83;;;13.50;40.30;;;;;;4976200;28;20775;-76
2022/11/12 12:13:30;;;;;;;3.10;1.50;;;13.50;41.20;;;;;;4993317;28;20413;-77
2022/11/12 12:16:23;;;;;;;3.93;1.70;;;14.10;39.40;;;;;;4992029;28;20443;-76
2022/11/12 12:18:57;;;;;;;2.90;1.30;;;13.50;41.00;;;;;;4986434;28;20433;-76
2022/11/12 12:21:25;;;;;;;4.50;1.70;;;14.10;40.00;;;;;;4992492;28;20447;-77
2022/11/12 12:23:56;;;;;;;2.90;1.30;;;14.50;39.30;;;;;;4993284;28;20458;-77
2022/11/12 12:26:46;;;;;;;2.87;1.27;;;15.00;38.00;;;;;;4992850;28;20426;-74
2022/11/12 12:29:30;;;;;;;3.40;1.70;;;14.90;36.90;;;;;;4993134;28;20415;-74
2022/11/12 12:32:16;;;;;;;4.67;2.27;;;14.60;37.50;;;;;;4993655;28;20552;-75
2022/11/12 12:34:48;;;;;;;4.63;1.87;;;14.50;39.00;;;;;;4974355;28;20436;-77
2022/11/12 12:37:36;;;;;;;3.33;1.60;;;14.30;39.50;;;;;;4992775;28;20798;-77
2022/11/12 12:40:21;;;;;;;3.47;1.50;;;14.30;38.60;;;;;;4988550;28;20443;-76
2022/11/12 12:42:46;;;;;;;4.47;1.40;;;14.40;39.20;;;;;;4992339;28;20415;-75
2022/11/12 12:45:24;;;;;;;4.40;2.07;;;14.70;38.80;;;;;;4992007;28;20419;-75
2022/11/12 12:47:51;;;;;;;3.10;1.37;;;14.50;38.00;;;;;;4991587;28;20212;-76
2022/11/12 12:50:18;;;;;;;3.40;1.40;;;14.50;39.00;;;;;;4996470;28;20524;-76
2022/11/12 12:53:03;;;;;;;4.27;1.80;;;15.30;37.30;;;;;;4991327;28;20864;-76
2022/11/12 12:55:40;;;;;;;3.50;1.67;;;15.30;37.30;;;;;;4972355;28;20400;-76
2022/11/12 12:58:41;;;;;;;4.27;1.80;;;14.50;37.20;;;;;;4987647;28;20455;-76
2022/11/12 13:01:27;;;;;;;6.40;2.17;;;14.70;37.50;;;;;;4968229;28;20435;-76
2022/11/12 13:03:52;;;;;;;3.57;1.73;;;15.00;37.00;;;;;;4992012;28;20454;-76
2022/11/12 13:06:24;;;;;;;5.80;2.00;;;15.00;37.40;;;;;;4991798;28;20803;-75
2022/11/12 13:08:55;;;;;;;3.00;1.30;;;15.60;36.70;;;;;;4989103;28;20271;-76
2022/11/12 13:12:24;;;;;;;3.50;1.57;;;15.50;35.30;;;;;;4974978;28;20492;-77
2022/11/12 13:14:37;;;;;;;3.87;1.77;;;16.00;35.00;;;;;;4976472;28;20975;-76
2022/11/12 13:17:15;;;;;;;5.13;1.83;;;15.80;33.90;;;;;;4998526;28;20440;-74
2022/11/12 13:19:52;;;;;;;4.90;1.70;;;14.90;36.10;;;;;;4998833;28;20428;-74
2022/11/12 13:22:18;;;;;;;4.90;1.60;;;14.90;36.50;;;;;;4995709;28;20490;-76
2022/11/12 13:25:02;;;;;;;3.10;1.40;;;15.50;36.00;;;;;;4994187;28;20460;-76
2022/11/12 13:27:43;;;;;;;4.70;1.90;;;15.60;34.80;;;;;;4987476;28;20194;-76
2022/11/12 13:30:29;;;;;;;6.57;2.37;;;15.50;35.20;;;;;;4995240;28;20400;-76
2022/11/12 13:32:56;;;;;;;3.53;1.63;;;15.80;35.60;;;;;;4994979;28;20444;-75